createdAt,value
2023-04-23T00:00:48.882Z,81.00
2023-04-23T00:03:21.137Z,81.01
2023-04-23T00:05:54.363Z,81.35
2023-04-23T00:08:27.300Z,81.56
2023-04-23T00:10:59.179Z,81.57
2023-04-23T00:13:31.011Z,82.00
2023-04-23T00:16:02.905Z,82.18
2023-04-23T00:18:34.452Z,82.17
2023-04-23T00:21:05.803Z,82.59
2023-04-23T00:23:38.553Z,82.92
2023-04-23T00:26:09.838Z,83.09
2023-04-23T00:28:41.138Z,83.16
2023-04-23T00:31:12.456Z,83.44
2023-04-23T00:33:43.738Z,83.94
2023-04-23T00:36:15.025Z,83.79
2023-04-23T00:38:46.308Z,84.00
2023-04-23T00:41:18.588Z,84.49
2023-04-23T00:43:52.412Z,84.15
2023-04-23T00:46:25.646Z,84.11
2023-04-23T00:48:57.349Z,84.26
2023-04-23T00:51:29.277Z,84.20
2023-04-23T00:54:00.586Z,84.11
2023-04-23T00:56:33.299Z,83.75
2023-04-23T00:59:04.911Z,83.87
2023-04-23T01:01:36.366Z,84.13
2023-04-23T01:04:09.545Z,84.18
2023-04-23T01:06:41.632Z,83.91
2023-04-23T01:09:13.905Z,83.99
2023-04-23T01:11:46.987Z,84.24
2023-04-23T01:14:18.270Z,84.47
2023-04-23T01:16:49.910Z,84.28
2023-04-23T01:19:21.456Z,84.38
2023-04-23T01:21:53.476Z,84.31
2023-04-23T01:24:24.795Z,84.17
2023-04-23T01:26:56.047Z,84.40
2023-04-23T01:29:27.482Z,84.35
2023-04-23T01:32:00.242Z,84.33
2023-04-23T01:34:32.087Z,83.98
2023-04-23T01:37:04.307Z,83.90
2023-04-23T01:39:37.008Z,84.04
2023-04-23T01:42:08.420Z,84.11
2023-04-23T01:44:39.966Z,83.99
2023-04-23T01:47:11.680Z,83.92
2023-04-23T01:49:43.367Z,83.81
2023-04-23T01:52:14.780Z,83.73
2023-04-23T01:54:46.050Z,84.22
2023-04-23T01:57:23.836Z,83.76
2023-04-23T02:00:08.425Z,84.44
2023-04-23T02:02:41.282Z,84.70
2023-04-23T02:05:16.346Z,84.48
2023-04-23T02:07:50.529Z,84.67
2023-04-23T02:10:22.333Z,85.13
2023-04-23T02:12:53.646Z,85.51
2023-04-23T02:15:25.129Z,85.41
2023-04-23T02:17:56.570Z,86.07
2023-04-23T02:20:27.866Z,85.80
2023-04-23T02:22:59.181Z,86.04
2023-04-23T02:25:32.254Z,86.33
2023-04-23T02:28:06.256Z,86.46
2023-04-23T02:30:37.862Z,86.46
2023-04-23T02:33:09.127Z,86.73
2023-04-23T02:35:40.853Z,86.76
2023-04-23T02:38:12.324Z,87.05
2023-04-23T02:40:43.713Z,87.18
2023-04-23T02:43:15.009Z,87.49
2023-04-23T02:45:46.280Z,87.59
2023-04-23T02:48:18.020Z,87.77
2023-04-23T02:50:49.472Z,87.70
2023-04-23T02:53:20.785Z,87.90
2023-04-23T02:55:52.053Z,87.87
2023-04-23T02:58:23.405Z,87.98
2023-04-23T03:00:55.594Z,87.86
2023-04-23T03:03:31.714Z,87.93
2023-04-23T03:06:03.688Z,87.50
2023-04-23T03:08:35.019Z,87.89
2023-04-23T03:11:06.362Z,87.82
2023-04-23T03:13:37.729Z,88.01
2023-04-23T03:16:09.305Z,87.96
2023-04-23T03:18:40.642Z,88.14
2023-04-23T03:21:12.066Z,87.73
2023-04-23T03:23:43.340Z,88.09
2023-04-23T03:26:14.748Z,88.20
2023-04-23T03:28:46.289Z,88.14
2023-04-23T03:31:17.719Z,88.44
2023-04-23T03:33:49.145Z,88.27
2023-04-23T03:36:20.437Z,88.17
2023-04-23T03:38:55.156Z,87.94
2023-04-23T03:41:26.435Z,87.83
2023-04-23T03:43:57.710Z,87.97
2023-04-23T03:46:29.005Z,88.09
2023-04-23T03:49:00.329Z,87.78
2023-04-23T03:51:31.873Z,87.93
2023-04-23T03:54:03.182Z,88.12
2023-04-23T03:56:34.479Z,87.87
2023-04-23T03:59:05.789Z,88.15
2023-04-23T04:01:37.119Z,87.82
2023-04-23T04:04:08.599Z,88.13
2023-04-23T04:06:40.682Z,88.32
2023-04-23T04:09:12.070Z,88.04
2023-04-23T04:11:43.348Z,88.45
2023-04-23T04:14:14.801Z,88.26
2023-04-23T04:16:46.120Z,88.61
2023-04-23T04:19:17.544Z,88.48
2023-04-23T04:21:49.093Z,88.38
2023-04-23T04:24:21.578Z,88.49
2023-04-23T04:26:53.948Z,88.40
2023-04-23T04:29:26.449Z,88.58
2023-04-23T04:31:58.158Z,88.41
2023-04-23T04:34:29.492Z,88.24
2023-04-23T04:37:00.755Z,88.18
2023-04-23T04:39:32.749Z,87.94
2023-04-23T04:42:06.557Z,88.16
2023-04-23T04:44:37.942Z,87.89
2023-04-23T04:47:09.792Z,87.76
2023-04-23T04:49:41.171Z,87.20
2023-04-23T04:52:12.489Z,87.37
2023-04-23T04:54:44.061Z,86.95
2023-04-23T04:57:15.527Z,87.09
2023-04-23T04:59:46.815Z,86.56
2023-04-23T05:02:18.322Z,86.64
2023-04-23T05:04:49.838Z,86.54
2023-04-23T05:07:21.102Z,85.90
2023-04-23T05:09:52.421Z,85.83
2023-04-23T05:12:23.731Z,85.77
2023-04-23T05:14:55.007Z,85.65
2023-04-23T05:17:26.317Z,85.77
2023-04-23T05:19:57.799Z,85.35
2023-04-23T05:22:29.250Z,85.44
2023-04-23T05:25:00.578Z,85.08
2023-04-23T05:27:31.896Z,85.16
2023-04-23T05:30:05.829Z,85.06
2023-04-23T05:32:38.087Z,85.16
2023-04-23T05:35:09.684Z,84.72
2023-04-23T05:37:41.066Z,84.92
2023-04-23T05:40:13.346Z,84.82
2023-04-23T05:42:44.631Z,84.87
2023-04-23T05:45:15.961Z,84.78
2023-04-23T05:47:47.352Z,84.34
2023-04-23T05:50:19.148Z,84.37
2023-04-23T05:52:50.622Z,84.09
2023-04-23T05:55:23.833Z,84.13
2023-04-23T05:57:55.189Z,83.95
2023-04-23T06:00:26.584Z,83.77
2023-04-23T06:02:58.140Z,83.88
2023-04-23T06:05:29.826Z,83.55
2023-04-23T06:08:01.263Z,83.41
2023-04-23T06:10:32.605Z,83.13
2023-04-23T06:13:03.989Z,82.99
2023-04-23T06:15:35.304Z,83.09
2023-04-23T06:18:06.798Z,82.40
2023-04-23T06:20:38.178Z,82.55
2023-04-23T06:23:09.455Z,82.38
2023-04-23T06:25:40.779Z,82.64
2023-04-23T06:28:12.040Z,82.24
2023-04-23T06:30:43.306Z,81.95
2023-04-23T06:33:14.711Z,81.65
2023-04-23T06:35:46.819Z,81.24
2023-04-23T06:38:19.116Z,81.21
2023-04-23T06:40:50.573Z,81.06
2023-04-23T06:43:22.063Z,81.05
2023-04-23T06:45:53.418Z,80.50
2023-04-23T06:48:26.461Z,80.63
2023-04-23T06:50:58.204Z,80.40
2023-04-23T06:53:29.464Z,80.09
2023-04-23T06:56:00.726Z,80.20
2023-04-23T06:58:32.287Z,79.61
2023-04-23T07:01:07.429Z,79.14
2023-04-23T07:03:38.931Z,79.05
2023-04-23T07:06:11.142Z,78.73
2023-04-23T07:08:43.510Z,79.00
2023-04-23T07:11:14.834Z,78.60
2023-04-23T07:13:46.161Z,78.63
2023-04-23T07:16:19.216Z,78.00
2023-04-23T07:18:51.766Z,77.99
2023-04-23T07:21:23.104Z,77.71
2023-04-23T07:23:56.739Z,77.37
2023-04-23T07:26:28.213Z,77.06
2023-04-23T07:28:59.882Z,76.49
2023-04-23T07:31:31.348Z,75.77
2023-04-23T07:34:03.207Z,75.37
2023-04-23T07:36:34.815Z,75.60
2023-04-23T07:39:06.209Z,75.45
2023-04-23T07:41:37.645Z,75.22
2023-04-23T07:44:09.088Z,74.49
2023-04-23T07:46:40.537Z,74.14
2023-04-23T07:49:11.890Z,73.52
2023-04-23T07:51:43.308Z,73.15
2023-04-23T07:54:14.834Z,73.25
2023-04-23T07:56:46.131Z,73.14
2023-04-23T07:59:17.403Z,73.48
2023-04-23T08:01:48.701Z,73.46
2023-04-23T08:04:20.468Z,73.17
2023-04-23T08:06:52.449Z,72.80
2023-04-23T08:09:23.810Z,72.21
2023-04-23T08:11:55.339Z,71.56
2023-04-23T08:14:26.628Z,71.31
2023-04-23T08:16:57.895Z,70.13
2023-04-23T08:19:32.152Z,70.62
2023-04-23T08:22:03.905Z,70.56
2023-04-23T08:24:35.184Z,70.12
2023-04-23T08:27:06.499Z,69.89
2023-04-23T08:29:37.863Z,69.58
2023-04-23T08:32:09.217Z,69.47
2023-04-23T08:34:40.631Z,69.39
2023-04-23T08:37:23.129Z,69.00
2023-04-23T08:40:01.712Z,68.94
2023-04-23T08:42:50.922Z,67.18
2023-04-23T08:45:23.316Z,67.51
2023-04-23T08:48:02.648Z,67.37
2023-04-23T08:50:35.678Z,67.38
2023-04-23T08:53:07.976Z,66.75
2023-04-23T08:55:39.922Z,66.33
2023-04-23T08:58:11.541Z,66.13
2023-04-23T09:00:43.452Z,66.18
2023-04-23T09:03:16.961Z,65.41
2023-04-23T09:05:48.558Z,65.64
2023-04-23T09:08:22.680Z,64.89
2023-04-23T09:10:57.549Z,64.64
2023-04-23T09:13:31.593Z,64.27
2023-04-23T09:16:05.068Z,63.78
2023-04-23T09:18:37.737Z,63.24
2023-04-23T09:21:10.756Z,62.74
2023-04-23T09:23:43.195Z,63.21
2023-04-23T09:26:22.147Z,62.70
2023-04-23T09:28:53.479Z,62.20
2023-04-23T09:31:24.887Z,61.43
2023-04-23T09:33:56.360Z,61.72
2023-04-23T09:36:28.279Z,61.46
2023-04-23T09:38:59.675Z,61.32
2023-04-23T09:41:31.314Z,61.53
2023-04-23T09:44:02.659Z,61.08
2023-04-23T09:46:42.138Z,61.43
2023-04-23T09:49:14.347Z,60.82
2023-04-23T09:51:47.473Z,61.26
2023-04-23T09:54:22.533Z,60.12
2023-04-23T09:57:00.130Z,60.42
2023-04-23T09:59:46.672Z,60.02
2023-04-23T10:02:20.140Z,60.19
2023-04-23T10:04:58.393Z,59.88
2023-04-23T10:07:35.204Z,59.55
2023-04-23T10:10:07.452Z,59.34
2023-04-23T10:12:53.664Z,58.87
2023-04-23T10:15:27.228Z,58.53
2023-04-23T10:17:59.272Z,58.23
2023-04-23T10:20:31.022Z,57.80
2023-04-23T10:23:02.984Z,57.61
2023-04-23T10:25:36.296Z,57.00
2023-04-23T10:28:11.642Z,56.61
2023-04-23T10:30:44.399Z,57.39
2023-04-23T10:33:29.100Z,56.94
2023-04-23T10:36:02.345Z,56.98
2023-04-23T10:38:34.963Z,57.69
2023-04-23T10:41:08.157Z,57.50
2023-04-23T10:43:40.534Z,56.25
2023-04-23T10:46:39.379Z,55.13
2023-04-23T10:49:16.284Z,56.33
2023-04-23T10:54:22.355Z,55.54
2023-04-23T10:56:59.653Z,54.84
2023-04-23T10:59:32.943Z,55.42
2023-04-23T11:02:09.582Z,54.64
2023-04-23T11:04:58.267Z,53.67
2023-04-23T11:07:33.215Z,54.38
2023-04-23T11:10:14.934Z,53.72
2023-04-23T11:12:46.336Z,54.23
2023-04-23T11:15:19.184Z,53.14
2023-04-23T11:17:59.469Z,52.91
2023-04-23T11:20:30.956Z,52.70
2023-04-23T11:23:02.354Z,53.47
2023-04-23T11:25:35.600Z,53.03
2023-04-23T11:28:08.107Z,53.12
2023-04-23T11:30:39.562Z,52.96
2023-04-23T11:33:10.905Z,52.96
2023-04-23T11:35:42.448Z,52.33
2023-04-23T11:38:13.706Z,52.36
2023-04-23T11:40:48.337Z,52.35
2023-04-23T11:43:20.897Z,51.78
2023-04-23T11:45:52.276Z,51.38
2023-04-23T11:48:23.890Z,52.09
2023-04-23T11:50:55.491Z,51.25
2023-04-23T11:53:26.926Z,51.44
2023-04-23T11:55:59.611Z,51.59
2023-04-23T11:58:30.957Z,51.28
2023-04-23T12:01:02.563Z,51.20
2023-04-23T12:03:34.265Z,50.52
2023-04-23T12:06:06.540Z,50.18
2023-04-23T12:08:40.308Z,49.91
2023-04-23T12:11:11.884Z,49.91
2023-04-23T12:13:45.180Z,49.62
2023-04-23T12:16:16.603Z,49.34
2023-04-23T12:18:53.810Z,49.27
2023-04-23T12:21:26.397Z,48.99
2023-04-23T12:23:58.430Z,49.24
2023-04-23T12:26:31.222Z,48.28
2023-04-23T12:29:02.598Z,49.15
2023-04-23T12:31:33.957Z,48.73
2023-04-23T12:34:09.957Z,48.27
2023-04-23T12:36:46.040Z,47.18
2023-04-23T12:39:31.323Z,47.47
2023-04-23T12:42:04.761Z,47.94
2023-04-23T12:44:37.685Z,47.15
2023-04-23T12:47:11.426Z,47.64
2023-04-23T12:49:43.898Z,47.18
2023-04-23T12:52:16.111Z,46.48
2023-04-23T12:54:56.067Z,46.12
2023-04-23T12:57:27.876Z,46.12
2023-04-23T12:59:59.191Z,45.41
2023-04-23T13:02:31.197Z,45.66
2023-04-23T13:05:02.768Z,45.14
2023-04-23T13:07:34.070Z,44.94
2023-04-23T13:10:06.210Z,44.63
2023-04-23T13:12:37.578Z,44.76
2023-04-23T13:15:09.243Z,44.66
2023-04-23T13:17:41.266Z,44.46
2023-04-23T13:20:12.657Z,44.14
2023-04-23T13:22:44.094Z,45.08
2023-04-23T13:25:15.519Z,44.92
2023-04-23T13:27:46.905Z,44.79
2023-04-23T13:30:18.186Z,44.91
2023-04-23T13:32:49.520Z,44.94
2023-04-23T13:35:20.930Z,44.56
2023-04-23T13:37:52.296Z,44.89
2023-04-23T13:40:23.695Z,44.93
2023-04-23T13:42:55.074Z,44.55
2023-04-23T13:45:26.465Z,44.92
2023-04-23T13:47:57.891Z,45.32
2023-04-23T13:50:29.311Z,46.34
2023-04-23T13:53:00.650Z,49.18
2023-04-23T13:55:32.523Z,51.24
2023-04-23T13:58:04.756Z,54.30
2023-04-23T14:00:36.150Z,55.50
2023-04-23T14:03:08.499Z,56.78
2023-04-23T14:05:39.800Z,56.66
2023-04-23T14:08:12.880Z,56.20
2023-04-23T14:10:44.290Z,56.73
2023-04-23T14:13:15.602Z,57.11
2023-04-23T14:15:46.899Z,58.15
2023-04-23T14:18:18.385Z,58.83
2023-04-23T14:20:49.849Z,58.90
2023-04-23T14:23:23.941Z,59.37
2023-04-23T14:26:03.105Z,59.21
2023-04-23T14:28:50.580Z,58.29
2023-04-23T14:31:21.934Z,59.55
2023-04-23T14:33:55.968Z,59.87
2023-04-23T14:36:27.375Z,60.22
2023-04-23T14:39:04.604Z,61.21
2023-04-23T14:41:36.149Z,61.53
2023-04-23T14:44:07.667Z,61.63
2023-04-23T14:46:39.003Z,62.00
2023-04-23T14:49:10.846Z,62.53
2023-04-23T14:51:42.532Z,62.69
2023-04-23T14:54:13.815Z,62.62
2023-04-23T14:56:45.460Z,62.53
2023-04-23T14:59:16.899Z,62.44
2023-04-23T15:01:48.416Z,62.40
2023-04-23T15:04:20.062Z,62.35
2023-04-23T15:06:51.519Z,62.20
2023-04-23T15:09:22.831Z,61.92
2023-04-23T15:11:54.128Z,61.55
2023-04-23T15:14:31.650Z,61.57
2023-04-23T15:17:03.055Z,62.10
2023-04-23T15:19:34.398Z,62.13
2023-04-23T15:22:05.731Z,62.16
2023-04-23T15:24:36.987Z,62.12
2023-04-23T15:27:08.281Z,63.07
2023-04-23T15:29:39.801Z,63.98
2023-04-23T15:32:12.059Z,64.54
2023-04-23T15:34:43.407Z,65.41
2023-04-23T15:37:15.584Z,66.37
2023-04-23T15:39:46.895Z,68.06
2023-04-23T15:42:21.052Z,69.48
2023-04-23T15:44:55.907Z,70.57
2023-04-23T15:47:27.221Z,72.31
2023-04-23T15:49:58.513Z,73.72
2023-04-23T15:52:29.956Z,74.87
2023-04-23T15:55:01.348Z,76.92
2023-04-23T15:57:32.706Z,78.77
2023-04-23T16:00:05.216Z,79.16
2023-04-23T16:02:37.804Z,80.26
2023-04-23T16:05:09.839Z,81.32
2023-04-23T16:07:41.289Z,81.71
2023-04-23T16:10:12.682Z,81.91
2023-04-23T16:12:45.737Z,82.62
2023-04-23T16:15:17.116Z,82.78
2023-04-23T16:17:48.854Z,83.03
2023-04-23T16:20:20.256Z,83.43
2023-04-23T16:22:51.739Z,83.62
2023-04-23T16:25:23.448Z,83.97
2023-04-23T16:27:56.336Z,84.50
2023-04-23T16:30:30.452Z,84.53
2023-04-23T16:33:01.860Z,84.94
2023-04-23T16:35:33.329Z,85.27
2023-04-23T16:38:04.637Z,85.52
2023-04-23T16:40:35.918Z,85.75
2023-04-23T16:43:07.266Z,85.91
2023-04-23T16:45:39.792Z,86.01
2023-04-23T16:48:13.945Z,85.91
2023-04-23T16:50:45.279Z,86.05
2023-04-23T16:53:16.922Z,86.40
2023-04-23T16:55:48.544Z,85.82
2023-04-23T16:58:22.399Z,85.59
2023-04-23T17:00:53.670Z,84.93
2023-04-23T17:03:25.242Z,85.20
2023-04-23T17:06:09.897Z,85.17
2023-04-23T17:08:41.490Z,85.40
2023-04-23T17:11:13.116Z,85.88
2023-04-23T17:13:44.464Z,86.07
2023-04-23T17:16:15.827Z,85.86
2023-04-23T17:18:47.517Z,85.71
2023-04-23T17:21:19.265Z,85.98
2023-04-23T17:23:50.759Z,86.33
2023-04-23T17:26:22.099Z,86.41
2023-04-23T17:28:53.434Z,86.00
2023-04-23T17:31:24.922Z,86.36
2023-04-23T17:33:57.453Z,86.13
2023-04-23T17:36:28.836Z,86.08
2023-04-23T17:39:00.211Z,86.15
2023-04-23T17:41:31.579Z,86.01
2023-04-23T17:44:03.954Z,85.76
2023-04-23T17:46:35.325Z,85.65
2023-04-23T17:49:07.935Z,85.78
2023-04-23T17:51:39.618Z,85.98
2023-04-23T17:54:11.064Z,86.15
2023-04-23T17:56:42.416Z,85.78
2023-04-23T17:59:13.884Z,86.61
2023-04-23T18:01:45.553Z,86.69
2023-04-23T18:04:17.966Z,87.16
2023-04-23T18:06:49.477Z,87.47
2023-04-23T18:09:20.859Z,88.54
2023-04-23T18:11:52.356Z,88.28
2023-04-23T18:14:23.830Z,88.74
2023-04-23T18:16:55.624Z,88.63
2023-04-23T18:19:26.940Z,89.17
2023-04-23T18:22:02.081Z,89.12
2023-04-23T18:24:33.427Z,89.29
2023-04-23T18:27:04.777Z,89.50
2023-04-23T18:29:36.038Z,89.89
2023-04-23T18:32:07.401Z,89.86
2023-04-23T18:34:40.563Z,89.77
2023-04-23T18:37:32.196Z,89.86
2023-04-23T18:40:04.598Z,90.10
2023-04-23T18:42:35.968Z,90.25
2023-04-23T18:45:08.302Z,89.97
2023-04-23T18:47:49.858Z,89.93
2023-04-23T18:50:54.750Z,89.26
2023-04-23T18:53:26.265Z,89.98
2023-04-23T18:55:57.616Z,89.57
2023-04-23T18:58:30.262Z,89.68
2023-04-23T19:01:01.684Z,89.57
2023-04-23T19:03:33.148Z,89.24
2023-04-23T19:06:07.857Z,89.19
2023-04-23T19:08:39.342Z,89.35
2023-04-23T19:11:10.969Z,88.96
2023-04-23T19:13:42.342Z,88.60
2023-04-23T19:16:16.166Z,88.56
2023-04-23T19:18:47.816Z,88.46
2023-04-23T19:21:19.359Z,88.22
2023-04-23T19:23:51.710Z,88.09
2023-04-23T19:26:23.606Z,87.98
2023-04-23T19:28:55.814Z,87.96
2023-04-23T19:31:28.671Z,87.62
2023-04-23T19:34:00.078Z,87.31
2023-04-23T19:36:32.453Z,87.43
2023-04-23T19:39:04.055Z,87.46
2023-04-23T19:41:35.546Z,87.38
2023-04-23T19:44:06.867Z,87.37
2023-04-23T19:46:38.284Z,87.81
2023-04-23T19:49:09.642Z,87.37
2023-04-23T19:51:41.635Z,87.71
2023-04-23T19:54:12.913Z,88.28
2023-04-23T19:56:44.258Z,87.61
2023-04-23T19:59:20.628Z,87.91
2023-04-23T20:01:51.950Z,87.71
2023-04-23T20:04:23.353Z,87.25
2023-04-23T20:06:54.686Z,87.59
2023-04-23T20:09:25.950Z,87.15
2023-04-23T20:11:57.543Z,87.06
2023-04-23T20:14:29.623Z,87.12
2023-04-23T20:17:01.063Z,87.21
2023-04-23T20:19:33.125Z,87.07
2023-04-23T20:22:04.495Z,86.93
2023-04-23T20:24:38.026Z,86.51
2023-04-23T20:27:09.370Z,86.65
2023-04-23T20:29:41.158Z,86.54
2023-04-23T20:32:13.155Z,86.39
2023-04-23T20:34:44.510Z,86.19
2023-04-23T20:37:21.227Z,86.08
2023-04-23T20:39:53.630Z,85.83
2023-04-23T20:42:25.710Z,86.31
2023-04-23T20:44:57.591Z,85.73
2023-04-23T20:47:28.919Z,85.58
2023-04-23T20:50:00.263Z,85.82
2023-04-23T20:52:31.610Z,85.73
2023-04-23T20:55:03.346Z,85.31
2023-04-23T20:57:34.657Z,85.29
2023-04-23T21:00:11.465Z,85.46
2023-04-23T21:02:43.105Z,85.09
2023-04-23T21:05:14.692Z,84.88
2023-04-23T21:07:46.179Z,84.60
2023-04-23T21:10:17.545Z,84.95
2023-04-23T21:12:49.356Z,84.98
2023-04-23T21:15:20.709Z,85.33
2023-04-23T21:17:52.020Z,85.92
2023-04-23T21:20:23.396Z,85.51
2023-04-23T21:22:54.778Z,86.42
2023-04-23T21:25:26.686Z,86.08
2023-04-23T21:27:58.538Z,86.17
2023-04-23T21:30:51.250Z,86.08
2023-04-23T21:33:24.509Z,86.46
2023-04-23T21:35:55.791Z,86.26
2023-04-23T21:38:27.056Z,86.46
2023-04-23T21:40:58.663Z,87.00
2023-04-23T21:43:31.383Z,86.95
2023-04-23T21:46:02.834Z,86.94
2023-04-23T21:48:34.180Z,87.45
2023-04-23T21:51:05.722Z,88.06
2023-04-23T21:53:37.429Z,88.54
2023-04-23T21:56:08.756Z,88.95
2023-04-23T21:58:40.235Z,89.61
2023-04-23T22:01:11.800Z,90.05
2023-04-23T22:03:46.507Z,90.80
2023-04-23T22:06:18.471Z,91.31
2023-04-23T22:08:51.002Z,91.63
2023-04-23T22:11:22.519Z,92.36
2023-04-23T22:13:53.790Z,92.75
2023-04-23T22:16:28.616Z,93.23
2023-04-23T22:19:00.719Z,93.74
2023-04-23T22:21:32.813Z,93.84
2023-04-23T22:24:04.542Z,93.97
2023-04-23T22:26:36.437Z,94.31
2023-04-23T22:29:08.424Z,94.31
2023-04-23T22:31:39.746Z,94.60
2023-04-23T22:34:11.204Z,94.68
2023-04-23T22:36:43.082Z,94.98
2023-04-23T22:39:14.406Z,95.01
2023-04-23T22:41:45.692Z,95.31
2023-04-23T22:44:17.010Z,95.59
2023-04-23T22:46:48.426Z,95.78
2023-04-23T22:49:19.971Z,95.69
2023-04-23T22:51:51.312Z,95.74
2023-04-23T22:54:22.605Z,96.30
2023-04-23T22:56:54.206Z,96.49
2023-04-23T22:59:25.780Z,96.49
2023-04-23T23:01:57.160Z,96.30
2023-04-23T23:04:28.521Z,96.25
2023-04-23T23:06:59.924Z,96.17
2023-04-23T23:09:32.342Z,96.54
2023-04-23T23:12:04.880Z,96.85
2023-04-23T23:14:37.806Z,96.85
2023-04-23T23:17:09.278Z,96.78
2023-04-23T23:19:41.185Z,97.20
2023-04-23T23:22:12.838Z,97.21
2023-04-23T23:24:44.195Z,97.39
2023-04-23T23:27:15.530Z,97.62
2023-04-23T23:29:46.816Z,97.52
2023-04-23T23:32:18.288Z,97.77
2023-04-23T23:34:49.848Z,97.91
2023-04-23T23:37:21.469Z,97.98
2023-04-23T23:39:52.732Z,98.10
2023-04-23T23:42:24.030Z,98.04
2023-04-23T23:44:55.332Z,98.37
2023-04-23T23:47:26.818Z,98.36
2023-04-23T23:49:58.128Z,98.59
2023-04-23T23:52:29.435Z,98.80
2023-04-23T23:55:00.834Z,99.02
2023-04-23T23:57:32.187Z,99.25
